createdAt,value
2017-11-07T00:02:17.697Z,86.80
2017-11-07T00:04:45.246Z,86.80
2017-11-07T00:07:12.818Z,86.80
2017-11-07T00:09:40.376Z,87.00
2017-11-07T00:12:07.938Z,87.30
2017-11-07T00:14:35.586Z,87.40
2017-11-07T00:17:03.194Z,87.40
2017-11-07T00:19:30.754Z,87.60
2017-11-07T00:21:58.338Z,87.50
2017-11-07T00:24:25.916Z,87.70
2017-11-07T00:26:54.289Z,87.70
2017-11-07T00:29:21.846Z,87.60
2017-11-07T00:31:49.402Z,87.30
2017-11-07T00:34:16.985Z,87.40
2017-11-07T00:36:44.549Z,87.60
2017-11-07T00:39:12.126Z,87.60
2017-11-07T00:41:39.708Z,87.50
2017-11-07T00:44:07.247Z,87.30
2017-11-07T00:46:34.820Z,87.10
2017-11-07T00:49:02.448Z,87.20
2017-11-07T00:51:30.001Z,87.20
2017-11-07T00:53:57.574Z,87.10
2017-11-07T00:56:25.183Z,87.00
2017-11-07T00:58:52.747Z,86.90
2017-11-07T01:01:21.152Z,86.90
2017-11-07T01:03:48.704Z,86.80
2017-11-07T01:06:16.312Z,86.80
2017-11-07T01:08:43.866Z,87.20
2017-11-07T01:11:11.487Z,87.30
2017-11-07T01:13:39.058Z,87.30
2017-11-07T01:16:06.642Z,87.10
2017-11-07T01:18:34.232Z,87.20
2017-11-07T01:21:01.842Z,87.10
2017-11-07T01:23:29.413Z,87.00
2017-11-07T01:25:56.963Z,86.80
2017-11-07T01:28:24.520Z,86.80
2017-11-07T01:30:52.104Z,86.80
2017-11-07T01:33:19.696Z,86.80
2017-11-07T01:35:47.267Z,87.00
2017-11-07T01:38:14.841Z,87.00
2017-11-07T01:40:43.646Z,87.40
2017-11-07T01:43:11.222Z,87.40
2017-11-07T01:45:38.781Z,87.60
2017-11-07T01:48:06.352Z,87.30
2017-11-07T01:50:33.914Z,88.00
2017-11-07T01:53:01.495Z,87.70
2017-11-07T01:55:29.029Z,87.20
2017-11-07T01:57:56.569Z,87.10
2017-11-07T02:00:24.138Z,87.30
2017-11-07T02:02:51.701Z,87.10
2017-11-07T02:05:19.291Z,87.40
2017-11-07T02:07:46.857Z,87.10
2017-11-07T02:10:14.453Z,87.30
2017-11-07T02:12:42.024Z,87.30
2017-11-07T02:15:10.385Z,87.50
2017-11-07T02:17:37.967Z,87.40
2017-11-07T02:20:06.292Z,86.90
2017-11-07T02:22:33.853Z,86.80
2017-11-07T02:25:01.426Z,87.00
2017-11-07T02:27:28.993Z,87.30
2017-11-07T02:29:56.588Z,87.10
2017-11-07T02:32:24.915Z,87.20
2017-11-07T02:34:52.481Z,87.10
2017-11-07T02:37:20.049Z,87.40
2017-11-07T02:39:47.602Z,87.20
2017-11-07T02:42:15.168Z,87.10
2017-11-07T02:44:42.716Z,87.10
2017-11-07T02:47:10.302Z,87.10
2017-11-07T02:49:37.849Z,87.00
2017-11-07T02:52:05.484Z,86.30
2017-11-07T02:54:33.049Z,85.90
2017-11-07T02:57:00.623Z,85.90
2017-11-07T02:59:28.193Z,86.30
2017-11-07T03:01:55.742Z,86.40
2017-11-07T03:04:23.330Z,86.80
2017-11-07T03:06:50.900Z,86.70
2017-11-07T03:09:19.248Z,86.10
2017-11-07T03:11:46.787Z,86.10
2017-11-07T03:14:14.366Z,86.10
2017-11-07T03:16:41.910Z,86.00
2017-11-07T03:19:09.560Z,86.20
2017-11-07T03:21:37.119Z,86.50
2017-11-07T03:24:04.686Z,86.90
2017-11-07T03:26:32.268Z,86.90
2017-11-07T03:28:59.822Z,86.90
2017-11-07T03:31:27.387Z,87.30
2017-11-07T03:33:55.825Z,87.30
2017-11-07T03:36:23.414Z,87.50
2017-11-07T03:38:50.955Z,87.40
2017-11-07T03:41:18.519Z,87.00
2017-11-07T03:43:46.074Z,87.20
2017-11-07T03:46:13.636Z,87.00
2017-11-07T03:48:41.204Z,86.80
2017-11-07T03:51:08.773Z,86.50
2017-11-07T03:53:37.091Z,87.20
2017-11-07T03:56:05.437Z,86.60
2017-11-07T03:58:32.994Z,86.70
2017-11-07T04:01:00.563Z,86.90
2017-11-07T04:03:28.135Z,86.90
2017-11-07T04:05:55.709Z,87.00
2017-11-07T04:08:24.032Z,86.90
2017-11-07T04:10:51.593Z,86.90
2017-11-07T04:13:19.141Z,86.10
2017-11-07T04:15:46.695Z,86.10
2017-11-07T04:18:14.253Z,86.10
2017-11-07T04:20:41.833Z,85.80
2017-11-07T04:23:09.390Z,85.70
2017-11-07T04:25:36.934Z,85.90
2017-11-07T04:28:04.517Z,85.50
2017-11-07T04:30:32.075Z,85.40
2017-11-07T04:32:59.652Z,84.40
2017-11-07T04:35:27.211Z,84.60
2017-11-07T04:37:54.775Z,84.30
2017-11-07T04:40:22.350Z,84.00
2017-11-07T04:42:49.895Z,84.10
2017-11-07T04:45:17.495Z,84.50
2017-11-07T04:47:45.818Z,84.40
2017-11-07T04:50:13.367Z,84.20
2017-11-07T04:52:40.920Z,84.70
2017-11-07T04:55:08.475Z,84.40
2017-11-07T04:57:36.026Z,84.40
2017-11-07T05:00:03.598Z,84.50
2017-11-07T05:02:31.157Z,84.40
2017-11-07T05:04:58.693Z,85.00
2017-11-07T05:07:28.002Z,84.60
2017-11-07T05:09:56.310Z,84.90
2017-11-07T05:12:23.881Z,84.90
2017-11-07T05:14:51.426Z,84.40
2017-11-07T05:17:19.006Z,84.50
2017-11-07T05:19:46.562Z,84.70
2017-11-07T05:22:14.121Z,84.60
2017-11-07T05:24:41.687Z,84.80
2017-11-07T05:27:09.270Z,84.80
2017-11-07T05:29:36.818Z,85.10
2017-11-07T05:32:04.406Z,85.40
2017-11-07T05:34:32.753Z,84.70
2017-11-07T05:37:00.311Z,84.60
2017-11-07T05:39:27.869Z,85.00
2017-11-07T05:41:55.462Z,85.30
2017-11-07T05:44:23.859Z,85.50
2017-11-07T05:46:51.429Z,85.50
2017-11-07T05:49:19.033Z,86.20
2017-11-07T05:51:46.657Z,86.30
2017-11-07T05:54:14.227Z,86.00
2017-11-07T05:56:41.762Z,85.90
2017-11-07T05:59:09.339Z,85.70
2017-11-07T06:01:36.901Z,85.60
2017-11-07T06:04:04.473Z,85.90
2017-11-07T06:06:32.076Z,86.10
2017-11-07T06:08:59.621Z,86.30
2017-11-07T06:11:27.190Z,86.00
2017-11-07T06:13:54.764Z,86.00
2017-11-07T06:16:23.103Z,86.20
2017-11-07T06:18:50.668Z,86.10
2017-11-07T06:21:18.248Z,86.30
2017-11-07T06:23:45.794Z,86.50
2017-11-07T06:26:13.369Z,86.10
2017-11-07T06:28:40.939Z,86.20
2017-11-07T06:31:08.486Z,86.50
2017-11-07T06:33:36.087Z,86.70
2017-11-07T06:36:03.633Z,86.80
2017-11-07T06:38:31.954Z,86.50
2017-11-07T06:40:59.527Z,86.40
2017-11-07T06:43:27.115Z,86.60
2017-11-07T06:45:54.669Z,86.60
2017-11-07T06:48:22.235Z,86.60
2017-11-07T06:50:49.787Z,86.30
2017-11-07T06:53:17.846Z,86.90
2017-11-07T06:55:45.409Z,86.80
2017-11-07T06:58:13.038Z,86.60
2017-11-07T07:00:40.621Z,86.20
2017-11-07T07:03:08.177Z,86.50
2017-11-07T07:05:36.525Z,86.60
2017-11-07T07:08:04.114Z,86.00
2017-11-07T07:10:32.434Z,86.00
2017-11-07T07:13:00.786Z,86.10
2017-11-07T07:15:28.353Z,86.00
2017-11-07T07:17:55.916Z,86.00
2017-11-07T07:20:23.480Z,85.40
2017-11-07T07:22:51.030Z,85.90
2017-11-07T07:25:18.629Z,85.20
2017-11-07T07:27:46.182Z,85.50
2017-11-07T07:30:13.739Z,85.70
2017-11-07T07:32:42.043Z,85.60
2017-11-07T07:35:09.626Z,85.50
2017-11-07T07:37:37.197Z,85.30
2017-11-07T07:40:04.775Z,85.30
2017-11-07T07:42:32.339Z,85.00
2017-11-07T07:44:59.902Z,84.60
2017-11-07T07:47:27.470Z,84.30
2017-11-07T07:49:55.021Z,84.60
2017-11-07T07:52:22.675Z,84.20
2017-11-07T07:54:50.523Z,84.20
2017-11-07T07:57:18.085Z,84.30
2017-11-07T07:59:45.719Z,84.00
2017-11-07T08:02:13.271Z,84.00
2017-11-07T08:04:40.845Z,83.80
2017-11-07T08:07:08.389Z,84.00
2017-11-07T08:09:36.133Z,84.40
2017-11-07T08:12:04.461Z,84.00
2017-11-07T08:14:32.793Z,84.40
2017-11-07T08:17:01.123Z,84.40
2017-11-07T08:19:28.705Z,84.40
2017-11-07T08:21:56.277Z,84.70
2017-11-07T08:24:23.828Z,84.60
2017-11-07T08:26:51.376Z,83.80
2017-11-07T08:29:18.925Z,84.10
2017-11-07T08:31:47.844Z,84.40
2017-11-07T08:34:16.959Z,84.70
2017-11-07T08:36:45.304Z,83.70
2017-11-07T08:39:12.986Z,84.30
2017-11-07T08:41:40.770Z,84.50
2017-11-07T08:44:11.563Z,84.80
2017-11-07T08:46:39.137Z,85.20
2017-11-07T08:49:06.723Z,84.90
2017-11-07T08:51:34.270Z,85.10
2017-11-07T08:54:01.868Z,84.90
2017-11-07T08:56:30.183Z,84.10
2017-11-07T08:58:57.786Z,84.00
2017-11-07T09:01:25.358Z,84.10
2017-11-07T09:03:53.686Z,83.80
2017-11-07T09:06:22.394Z,83.80
2017-11-07T09:08:50.165Z,83.70
2017-11-07T09:11:18.084Z,83.40
2017-11-07T09:13:45.661Z,84.60
2017-11-07T09:16:13.222Z,83.70
2017-11-07T09:18:41.587Z,84.20
2017-11-07T09:21:09.153Z,84.20
2017-11-07T09:23:36.765Z,84.00
2017-11-07T09:26:04.335Z,83.90
2017-11-07T09:28:32.681Z,83.70
2017-11-07T09:31:00.222Z,83.70
2017-11-07T09:33:27.798Z,83.50
2017-11-07T09:35:55.340Z,83.40
2017-11-07T09:38:22.900Z,83.20
2017-11-07T09:40:50.457Z,83.40
2017-11-07T09:43:18.007Z,83.30
2017-11-07T09:45:45.576Z,83.60
2017-11-07T09:48:13.122Z,83.40
2017-11-07T09:50:40.709Z,83.10
2017-11-07T09:53:08.290Z,82.90
2017-11-07T09:55:35.878Z,83.20
2017-11-07T09:58:04.203Z,82.60
2017-11-07T10:00:31.778Z,82.60
2017-11-07T10:02:59.347Z,82.70
2017-11-07T10:05:27.671Z,82.80
2017-11-07T10:07:55.244Z,82.80
2017-11-07T10:10:22.821Z,82.80
2017-11-07T10:12:50.413Z,82.80
2017-11-07T10:15:17.963Z,83.00
2017-11-07T10:17:45.550Z,83.10
2017-11-07T10:20:13.885Z,82.60
2017-11-07T10:22:41.496Z,82.60
2017-11-07T10:25:09.813Z,82.20
2017-11-07T10:27:37.404Z,82.20
2017-11-07T10:30:05.009Z,82.50
2017-11-07T10:32:32.613Z,81.70
2017-11-07T10:35:00.183Z,81.30
2017-11-07T10:37:27.730Z,81.20
2017-11-07T10:39:55.295Z,80.80
2017-11-07T10:42:22.874Z,80.80
2017-11-07T10:44:50.446Z,80.90
2017-11-07T10:47:18.761Z,80.90
2017-11-07T10:49:46.347Z,80.80
2017-11-07T10:52:13.913Z,80.40
2017-11-07T10:54:41.479Z,80.70
2017-11-07T10:57:09.055Z,81.00
2017-11-07T10:59:36.637Z,80.80
2017-11-07T11:02:04.990Z,80.00
2017-11-07T11:04:32.595Z,79.90
2017-11-07T11:07:00.146Z,80.20
2017-11-07T11:09:28.478Z,79.40
2017-11-07T11:11:56.036Z,79.40
2017-11-07T11:14:23.635Z,79.60
2017-11-07T11:16:51.962Z,78.60
2017-11-07T11:19:19.505Z,78.60
2017-11-07T11:21:47.075Z,78.30
2017-11-07T11:24:14.632Z,78.80
2017-11-07T11:26:42.206Z,78.70
2017-11-07T11:29:09.761Z,78.00
2017-11-07T11:31:37.321Z,77.40
2017-11-07T11:34:04.876Z,77.70
2017-11-07T11:36:32.454Z,77.60
2017-11-07T11:39:00.032Z,77.70
2017-11-07T11:41:28.781Z,78.10
2017-11-07T11:43:59.977Z,78.00
2017-11-07T11:46:31.500Z,78.40
2017-11-07T11:48:59.650Z,78.60
2017-11-07T11:51:27.224Z,79.00
2017-11-07T11:53:55.560Z,79.00
2017-11-07T11:56:23.118Z,78.90
2017-11-07T11:58:50.729Z,78.50
2017-11-07T12:01:18.923Z,78.50
2017-11-07T12:03:46.785Z,79.30
2017-11-07T12:06:15.392Z,79.00
2017-11-07T12:08:43.554Z,79.00
2017-11-07T12:11:11.188Z,79.10
2017-11-07T12:13:38.794Z,79.20
2017-11-07T12:16:06.403Z,78.80
2017-11-07T12:18:34.778Z,78.50
2017-11-07T12:21:03.550Z,78.80
2017-11-07T12:23:31.172Z,78.70
2017-11-07T12:25:58.852Z,78.30
2017-11-07T12:28:26.472Z,78.80
2017-11-07T12:30:54.055Z,79.10
2017-11-07T12:33:21.673Z,79.10
2017-11-07T12:35:50.089Z,78.60
2017-11-07T12:38:17.716Z,78.60
2017-11-07T12:40:46.335Z,78.90
2017-11-07T12:43:13.902Z,78.90
2017-11-07T12:45:41.504Z,78.90
2017-11-07T12:48:11.410Z,79.30
2017-11-07T12:50:51.819Z,78.80
2017-11-07T12:53:19.394Z,79.30
2017-11-07T12:55:49.282Z,78.60
2017-11-07T12:58:17.729Z,79.40
2017-11-07T13:00:45.301Z,79.40
2017-11-07T13:03:13.346Z,79.40
2017-11-07T13:05:43.980Z,79.90
2017-11-07T13:08:12.109Z,79.40
2017-11-07T13:10:39.752Z,79.60
2017-11-07T13:13:08.123Z,79.70
2017-11-07T13:15:35.707Z,79.70
2017-11-07T13:18:04.156Z,79.40
2017-11-07T13:20:31.715Z,79.30
2017-11-07T13:22:59.324Z,80.10
2017-11-07T13:25:26.992Z,79.80
2017-11-07T13:27:54.655Z,79.80
2017-11-07T13:30:22.213Z,80.00
2017-11-07T13:32:49.774Z,80.40
2017-11-07T13:35:17.394Z,80.40
2017-11-07T13:37:45.726Z,80.80
2017-11-07T13:40:13.333Z,80.80
2017-11-07T13:42:41.690Z,80.90
2017-11-07T13:45:09.244Z,80.90
2017-11-07T13:47:36.806Z,80.90
2017-11-07T13:50:04.354Z,81.50
2017-11-07T13:52:31.912Z,81.80
2017-11-07T13:54:59.524Z,81.90
2017-11-07T13:57:27.845Z,81.40
2017-11-07T13:59:55.397Z,81.40
2017-11-07T14:02:22.971Z,81.40
2017-11-07T14:04:50.554Z,81.70
2017-11-07T14:07:18.118Z,81.90
2017-11-07T14:09:45.706Z,81.90
2017-11-07T14:12:14.031Z,82.80
2017-11-07T14:14:41.593Z,82.60
2017-11-07T14:17:09.148Z,81.90
2017-11-07T14:19:36.706Z,81.90
2017-11-07T14:22:04.262Z,82.10
2017-11-07T14:24:31.821Z,81.90
2017-11-07T14:26:59.381Z,82.00
2017-11-07T14:29:27.717Z,82.10
2017-11-07T14:31:56.045Z,82.40
2017-11-07T14:34:23.592Z,82.40
2017-11-07T14:36:51.175Z,82.30
2017-11-07T14:39:18.733Z,82.30
2017-11-07T14:41:46.337Z,82.60
2017-11-07T14:44:14.657Z,82.60
2017-11-07T14:46:42.239Z,82.60
2017-11-07T14:49:09.789Z,82.30
2017-11-07T14:51:37.400Z,82.50
2017-11-07T14:54:05.733Z,82.80
2017-11-07T14:56:33.309Z,82.80
2017-11-07T14:59:00.980Z,83.20
2017-11-07T15:01:28.831Z,83.10
2017-11-07T15:03:57.228Z,83.30
2017-11-07T15:06:24.769Z,83.30
2017-11-07T15:08:52.342Z,83.20
2017-11-07T15:11:19.897Z,82.90
2017-11-07T15:13:47.457Z,83.00
2017-11-07T15:16:15.036Z,83.20
2017-11-07T15:18:42.657Z,83.20
2017-11-07T15:21:10.212Z,83.60
2017-11-07T15:23:43.385Z,83.60
2017-11-07T15:26:10.963Z,84.20
2017-11-07T15:28:38.570Z,84.00
2017-11-07T15:31:06.134Z,84.10
2017-11-07T15:33:34.518Z,84.10
2017-11-07T15:36:02.857Z,84.40
2017-11-07T15:38:30.531Z,84.30
2017-11-07T15:40:58.113Z,84.20
2017-11-07T15:43:25.695Z,84.40
2017-11-07T15:45:53.251Z,84.60
2017-11-07T15:48:20.830Z,84.80
2017-11-07T15:50:48.382Z,85.30
2017-11-07T15:53:16.022Z,85.50
2017-11-07T15:55:43.593Z,85.80
2017-11-07T15:58:11.160Z,86.20
2017-11-07T16:00:38.725Z,86.40
2017-11-07T16:03:06.616Z,86.40
2017-11-07T16:05:36.655Z,86.20
2017-11-07T16:08:05.133Z,86.10
2017-11-07T16:10:45.385Z,85.90
2017-11-07T16:13:19.542Z,85.80
2017-11-07T16:15:54.228Z,86.20
2017-11-07T16:18:26.307Z,86.60
2017-11-07T16:21:04.714Z,86.60
2017-11-07T16:23:34.447Z,86.10
2017-11-07T16:26:03.791Z,85.70
2017-11-07T16:28:31.543Z,85.90
2017-11-07T16:31:01.039Z,85.70
2017-11-07T16:33:33.770Z,86.20
2017-11-07T16:36:02.101Z,86.60
2017-11-07T16:38:31.548Z,86.60
2017-11-07T16:40:59.405Z,86.70
2017-11-07T16:43:32.141Z,87.00
2017-11-07T16:46:00.014Z,86.80
2017-11-07T16:48:29.596Z,87.60
2017-11-07T16:51:01.575Z,87.30
2017-11-07T16:53:30.929Z,87.70
2017-11-07T16:56:00.793Z,87.70
2017-11-07T16:58:28.578Z,87.90
2017-11-07T17:00:56.118Z,88.00
2017-11-07T17:03:23.689Z,88.40
2017-11-07T17:05:51.266Z,88.00
2017-11-07T17:08:19.632Z,87.80
2017-11-07T17:10:47.178Z,87.80
2017-11-07T17:13:14.752Z,88.00
2017-11-07T17:15:43.650Z,88.20
2017-11-07T17:18:11.206Z,88.10
2017-11-07T17:20:38.771Z,88.10
2017-11-07T17:23:06.492Z,88.40
2017-11-07T17:25:34.831Z,89.10
2017-11-07T17:28:05.592Z,89.10
2017-11-07T17:30:33.933Z,89.20
2017-11-07T17:33:01.478Z,89.10
2017-11-07T17:35:29.085Z,89.20
2017-11-07T17:37:57.453Z,89.30
2017-11-07T17:40:25.031Z,89.20
2017-11-07T17:42:53.406Z,89.10
2017-11-07T17:45:21.734Z,88.60
2017-11-07T17:47:49.294Z,88.60
2017-11-07T17:50:16.859Z,88.80
2017-11-07T17:52:44.422Z,88.40
2017-11-07T17:55:12.001Z,88.70
2017-11-07T18:00:19.655Z,88.60
2017-11-07T18:02:55.614Z,88.30
2017-11-07T18:05:34.650Z,88.30
2017-11-07T18:08:08.266Z,88.30
2017-11-07T18:10:41.121Z,88.30
2017-11-07T18:13:36.612Z,88.20
2017-11-07T18:16:04.830Z,88.30
2017-11-07T18:18:32.399Z,88.40
2017-11-07T18:21:04.376Z,88.30
2017-11-07T18:23:31.988Z,88.90
2017-11-07T18:26:00.331Z,88.20
2017-11-07T18:28:27.888Z,88.20
2017-11-07T18:30:55.494Z,88.30
2017-11-07T18:33:23.088Z,88.40
2017-11-07T18:35:50.650Z,88.70
2017-11-07T18:38:18.197Z,88.40
2017-11-07T18:40:45.777Z,88.40
2017-11-07T18:43:13.336Z,88.60
2017-11-07T18:45:40.913Z,88.40
2017-11-07T18:48:08.502Z,89.00
2017-11-07T18:50:37.100Z,89.30
2017-11-07T18:53:05.460Z,89.70
2017-11-07T18:55:33.036Z,89.70
2017-11-07T18:58:01.687Z,90.20
2017-11-07T19:00:33.709Z,90.20
2017-11-07T19:06:01.647Z,90.20
2017-11-07T19:08:34.621Z,90.60
2017-11-07T19:11:09.837Z,90.90
2017-11-07T19:16:19.649Z,91.30
2017-11-07T19:18:48.985Z,91.40
2017-11-07T19:21:17.346Z,91.40
2017-11-07T19:23:45.718Z,91.50
2017-11-07T19:26:15.271Z,91.40
2017-11-07T19:28:44.335Z,91.40
2017-11-07T19:31:18.488Z,91.50
2017-11-07T19:33:47.212Z,91.60
2017-11-07T19:36:14.783Z,91.80
2017-11-07T19:38:43.580Z,91.90
2017-11-07T19:41:13.943Z,91.80
2017-11-07T19:43:44.068Z,91.90
2017-11-07T19:46:15.757Z,92.00
2017-11-07T19:48:46.655Z,92.00
2017-11-07T19:51:18.343Z,92.00
2017-11-07T19:53:47.887Z,91.90
2017-11-07T19:56:16.228Z,91.90
2017-11-07T19:58:49.193Z,91.90
2017-11-07T20:01:17.701Z,91.90
2017-11-07T20:03:47.948Z,91.90
2017-11-07T20:06:15.554Z,91.90
2017-11-07T20:08:44.854Z,91.90
2017-11-07T20:11:16.349Z,91.90
2017-11-07T20:13:46.914Z,91.70
2017-11-07T20:16:17.582Z,91.70
2017-11-07T20:18:45.178Z,91.60
2017-11-07T20:21:15.007Z,91.70
2017-11-07T20:23:46.796Z,91.70
2017-11-07T20:26:16.449Z,91.70
2017-11-07T20:28:45.995Z,91.70
2017-11-07T20:31:15.283Z,91.80
2017-11-07T20:33:46.374Z,91.80
2017-11-07T20:36:15.331Z,91.80
2017-11-07T20:38:44.970Z,91.70
2017-11-07T20:41:15.719Z,91.70
2017-11-07T20:43:52.405Z,91.60
2017-11-07T20:46:26.479Z,91.40
2017-11-07T20:48:58.073Z,91.40
2017-11-07T20:51:28.936Z,91.40
2017-11-07T20:53:56.516Z,91.40
2017-11-07T20:56:24.856Z,91.20
2017-11-07T20:58:54.549Z,91.20
2017-11-07T21:07:30.427Z,91.20
2017-11-07T21:10:01.093Z,91.30
2017-11-07T21:15:16.378Z,91.30
2017-11-07T21:17:44.181Z,91.30
2017-11-07T21:20:12.801Z,91.30
2017-11-07T21:22:40.381Z,91.20
2017-11-07T21:25:10.424Z,91.00
2017-11-07T21:27:40.508Z,91.00
2017-11-07T21:30:11.974Z,91.10
2017-11-07T21:32:41.063Z,91.00
2017-11-07T21:35:11.719Z,91.10
2017-11-07T21:37:55.852Z,91.10
2017-11-07T21:40:24.199Z,91.00
2017-11-07T21:42:57.594Z,91.10
2017-11-07T21:45:27.170Z,91.00
2017-11-07T21:47:55.619Z,90.90
2017-11-07T21:50:25.462Z,90.90
2017-11-07T21:52:55.207Z,91.00
2017-11-07T21:55:26.700Z,91.10
2017-11-07T21:57:58.470Z,91.00
2017-11-07T22:00:27.775Z,91.00
2017-11-07T22:03:00.358Z,91.00
2017-11-07T22:05:27.998Z,90.90
2017-11-07T22:07:55.572Z,90.90
2017-11-07T22:10:23.140Z,91.00
2017-11-07T22:12:50.719Z,91.00
2017-11-07T22:15:18.267Z,91.00
2017-11-07T22:17:51.628Z,90.90
2017-11-07T22:20:19.219Z,91.00
2017-11-07T22:22:47.546Z,91.20
2017-11-07T22:25:17.029Z,91.00
2017-11-07T22:27:45.374Z,91.50
2017-11-07T22:30:12.929Z,91.50
2017-11-07T22:32:53.607Z,91.40
2017-11-07T22:35:21.175Z,91.50
2017-11-07T22:37:48.734Z,91.50
2017-11-07T22:40:16.294Z,91.40
2017-11-07T22:42:43.874Z,91.50
2017-11-07T22:45:11.434Z,91.40
2017-11-07T22:47:38.991Z,91.40
2017-11-07T22:50:06.539Z,91.20
2017-11-07T22:52:34.105Z,91.20
2017-11-07T22:55:01.663Z,91.10
2017-11-07T22:57:29.226Z,91.10
2017-11-07T22:59:56.780Z,91.10
2017-11-07T23:02:24.352Z,91.00
2017-11-07T23:04:51.909Z,91.00
2017-11-07T23:07:19.469Z,91.30
2017-11-07T23:09:47.052Z,91.10
2017-11-07T23:12:15.363Z,91.00
2017-11-07T23:14:42.947Z,91.00
2017-11-07T23:17:10.515Z,91.00
2017-11-07T23:19:38.080Z,91.00
2017-11-07T23:22:05.666Z,91.00
2017-11-07T23:24:33.990Z,91.00
2017-11-07T23:27:01.541Z,91.00
2017-11-07T23:29:29.139Z,90.90
2017-11-07T23:31:56.716Z,90.90
2017-11-07T23:34:24.268Z,90.80
2017-11-07T23:36:51.846Z,90.90
2017-11-07T23:39:20.174Z,90.90
2017-11-07T23:41:48.768Z,90.90
2017-11-07T23:44:16.337Z,90.80
2017-11-07T23:46:43.888Z,90.80
2017-11-07T23:49:11.455Z,91.10
2017-11-07T23:51:39.015Z,90.80
2017-11-07T23:54:06.579Z,90.90
2017-11-07T23:56:34.146Z,90.80
2017-11-07T23:59:01.705Z,90.90
